sensor_id;sensor_type;location;lat;lon;timestamp;pressure;altitude;pressure_sealevel;temperature;humidity
21730;BME280;11027;51.030;13.812;2023-05-10T00:00:04;99724.53;;;15.15;43.80
21730;BME280;11027;51.030;13.812;2023-05-10T00:02:29;99735.94;;;15.12;43.84
21730;BME280;11027;51.030;13.812;2023-05-10T00:04:55;99739.13;;;15.09;44.22
21730;BME280;11027;51.030;13.812;2023-05-10T00:07:20;99739.34;;;15.07;44.18
21730;BME280;11027;51.030;13.812;2023-05-10T00:09:45;99724.00;;;14.99;44.24
21730;BME280;11027;51.030;13.812;2023-05-10T00:12:10;99717.88;;;14.97;44.16
21730;BME280;11027;51.030;13.812;2023-05-10T00:14:36;99732.03;;;14.94;44.12
21730;BME280;11027;51.030;13.812;2023-05-10T00:17:01;99725.09;;;14.92;44.34
21730;BME280;11027;51.030;13.812;2023-05-10T00:19:26;99722.81;;;14.89;44.60
21730;BME280;11027;51.030;13.812;2023-05-10T00:21:51;99720.91;;;14.89;44.52
21730;BME280;11027;51.030;13.812;2023-05-10T00:24:17;99722.19;;;14.87;44.23
21730;BME280;11027;51.030;13.812;2023-05-10T00:26:42;99731.03;;;14.82;44.38
21730;BME280;11027;51.030;13.812;2023-05-10T00:29:07;99732.53;;;14.78;44.69
21730;BME280;11027;51.030;13.812;2023-05-10T00:31:33;99719.28;;;14.75;44.73
21730;BME280;11027;51.030;13.812;2023-05-10T00:33:58;99724.16;;;14.73;44.63
21730;BME280;11027;51.030;13.812;2023-05-10T00:36:23;99721.00;;;14.69;44.64
21730;BME280;11027;51.030;13.812;2023-05-10T00:38:48;99722.72;;;14.64;45.02
21730;BME280;11027;51.030;13.812;2023-05-10T00:41:14;99718.28;;;14.63;44.73
21730;BME280;11027;51.030;13.812;2023-05-10T00:43:39;99725.28;;;14.58;44.98
21730;BME280;11027;51.030;13.812;2023-05-10T00:46:04;99716.44;;;14.56;44.88
21730;BME280;11027;51.030;13.812;2023-05-10T00:48:30;99719.34;;;14.55;45.05
21730;BME280;11027;51.030;13.812;2023-05-10T00:50:55;99710.09;;;14.49;45.00
21730;BME280;11027;51.030;13.812;2023-05-10T00:53:21;99705.06;;;14.46;45.20
21730;BME280;11027;51.030;13.812;2023-05-10T00:55:46;99710.97;;;14.43;45.15
21730;BME280;11027;51.030;13.812;2023-05-10T00:58:11;99708.22;;;14.43;45.05
21730;BME280;11027;51.030;13.812;2023-05-10T01:00:37;99711.38;;;14.40;45.12
21730;BME280;11027;51.030;13.812;2023-05-10T01:03:05;99707.63;;;14.34;44.94
21730;BME280;11027;51.030;13.812;2023-05-10T01:05:30;99708.88;;;14.32;45.07
21730;BME280;11027;51.030;13.812;2023-05-10T01:07:56;99702.16;;;14.28;45.12
21730;BME280;11027;51.030;13.812;2023-05-10T01:10:22;99706.38;;;14.24;45.39
21730;BME280;11027;51.030;13.812;2023-05-10T01:12:47;99703.00;;;14.21;45.26
21730;BME280;11027;51.030;13.812;2023-05-10T01:15:14;99699.88;;;14.18;45.51
21730;BME280;11027;51.030;13.812;2023-05-10T01:17:42;99700.50;;;14.13;45.39
21730;BME280;11027;51.030;13.812;2023-05-10T01:20:10;99695.03;;;14.13;45.57
21730;BME280;11027;51.030;13.812;2023-05-10T01:25:33;99696.75;;;14.01;45.97
21730;BME280;11027;51.030;13.812;2023-05-10T01:28:35;99696.34;;;13.97;46.00
21730;BME280;11027;51.030;13.812;2023-05-10T01:31:35;99699.31;;;13.96;45.93
21730;BME280;11027;51.030;13.812;2023-05-10T01:34:09;99692.16;;;13.95;46.24
21730;BME280;11027;51.030;13.812;2023-05-10T01:36:48;99693.22;;;13.94;45.96
21730;BME280;11027;51.030;13.812;2023-05-10T01:39:32;99696.38;;;13.91;46.35
21730;BME280;11027;51.030;13.812;2023-05-10T01:42:08;99691.34;;;13.88;46.32
21730;BME280;11027;51.030;13.812;2023-05-10T01:45:12;99692.19;;;13.82;46.56
21730;BME280;11027;51.030;13.812;2023-05-10T01:47:54;99691.56;;;13.79;46.48
21730;BME280;11027;51.030;13.812;2023-05-10T01:50:27;99698.06;;;13.78;46.78
21730;BME280;11027;51.030;13.812;2023-05-10T01:52:56;99691.34;;;13.74;46.74
21730;BME280;11027;51.030;13.812;2023-05-10T01:55:25;99695.13;;;13.73;46.73
21730;BME280;11027;51.030;13.812;2023-05-10T01:57:55;99690.09;;;13.70;46.79
21730;BME280;11027;51.030;13.812;2023-05-10T02:00:22;99688.00;;;13.66;47.08
21730;BME280;11027;51.030;13.812;2023-05-10T02:02:49;99683.34;;;13.66;47.16
21730;BME280;11027;51.030;13.812;2023-05-10T02:05:16;99677.88;;;13.66;46.97
21730;BME280;11027;51.030;13.812;2023-05-10T02:07:43;99678.28;;;13.63;47.09
21730;BME280;11027;51.030;13.812;2023-05-10T02:10:10;99681.66;;;13.65;47.51
21730;BME280;11027;51.030;13.812;2023-05-10T02:12:39;99685.47;;;13.64;47.54
21730;BME280;11027;51.030;13.812;2023-05-10T02:15:06;99674.28;;;13.59;47.58
21730;BME280;11027;51.030;13.812;2023-05-10T02:17:34;99675.78;;;13.55;47.67
21730;BME280;11027;51.030;13.812;2023-05-10T02:20:01;99681.66;;;13.58;47.50
21730;BME280;11027;51.030;13.812;2023-05-10T02:22:27;99677.88;;;13.53;47.71
21730;BME280;11027;51.030;13.812;2023-05-10T02:24:58;99677.88;;;13.53;48.02
21730;BME280;11027;51.030;13.812;2023-05-10T02:27:27;99675.78;;;13.48;47.87
21730;BME280;11027;51.030;13.812;2023-05-10T02:29:53;99681.91;;;13.44;48.17
21730;BME280;11027;51.030;13.812;2023-05-10T02:32:21;99680.66;;;13.39;48.20
21730;BME280;11027;51.030;13.812;2023-05-10T02:34:48;99674.94;;;13.34;48.47
21730;BME280;11027;51.030;13.812;2023-05-10T02:37:18;99674.94;;;13.34;48.38
21730;BME280;11027;51.030;13.812;2023-05-10T02:39:44;99680.66;;;13.39;48.38
21730;BME280;11027;51.030;13.812;2023-05-10T02:42:17;99680.44;;;13.34;48.43
21730;BME280;11027;51.030;13.812;2023-05-10T02:44:43;99675.38;;;13.31;48.76
21730;BME280;11027;51.030;13.812;2023-05-10T02:47:10;99679.16;;;13.30;48.56
21730;BME280;11027;51.030;13.812;2023-05-10T02:49:35;99677.25;;;13.31;48.73
21730;BME280;11027;51.030;13.812;2023-05-10T02:52:04;99677.88;;;13.26;49.11
21730;BME280;11027;51.030;13.812;2023-05-10T02:54:33;99673.69;;;13.30;48.82
21730;BME280;11027;51.030;13.812;2023-05-10T02:57:04;99672.84;;;13.30;48.89
21730;BME280;11027;51.030;13.812;2023-05-10T02:59:29;99669.28;;;13.29;48.97
21730;BME280;11027;51.030;13.812;2023-05-10T03:01:54;99676.59;;;13.22;49.32
21730;BME280;11027;51.030;13.812;2023-05-10T03:04:20;99672.41;;;13.19;49.35
21730;BME280;11027;51.030;13.812;2023-05-10T03:06:45;99680.38;;;13.14;49.75
21730;BME280;11027;51.030;13.812;2023-05-10T03:09:11;99666.72;;;13.08;49.76
21730;BME280;11027;51.030;13.812;2023-05-10T03:16:50;99672.59;;;13.05;50.12
21730;BME280;11027;51.030;13.812;2023-05-10T03:19:24;99677.41;;;13.02;50.08
21730;BME280;11027;51.030;13.812;2023-05-10T03:21:52;99671.56;;;12.99;50.41
21730;BME280;11027;51.030;13.812;2023-05-10T03:24:20;99670.69;;;12.98;50.38
21730;BME280;11027;51.030;13.812;2023-05-10T03:26:47;99667.94;;;12.98;50.63
21730;BME280;11027;51.030;13.812;2023-05-10T03:29:14;99662.72;;;12.97;50.60
21730;BME280;11027;51.030;13.812;2023-05-10T03:31:40;99671.13;;;12.95;50.52
21730;BME280;11027;51.030;13.812;2023-05-10T03:34:06;99677.84;;;12.93;50.82
21730;BME280;11027;51.030;13.812;2023-05-10T03:36:32;99671.53;;;12.92;50.56
21730;BME280;11027;51.030;13.812;2023-05-10T03:38:57;99670.69;;;12.92;50.65
21730;BME280;11027;51.030;13.812;2023-05-10T03:41:22;99675.31;;;12.91;50.83
21730;BME280;11027;51.030;13.812;2023-05-10T03:43:48;99668.16;;;12.90;50.75
21730;BME280;11027;51.030;13.812;2023-05-10T03:46:13;99662.69;;;12.90;51.08
21730;BME280;11027;51.030;13.812;2023-05-10T03:48:38;99670.25;;;12.88;50.92
21730;BME280;11027;51.030;13.812;2023-05-10T03:51:04;99661.41;;;12.86;51.14
21730;BME280;11027;51.030;13.812;2023-05-10T03:53:29;99665.22;;;12.85;50.93
21730;BME280;11027;51.030;13.812;2023-05-10T03:55:54;99671.72;;;12.84;51.31
21730;BME280;11027;51.030;13.812;2023-05-10T03:58:20;99681.19;;;12.81;51.36
21730;BME280;11027;51.030;13.812;2023-05-10T04:00:45;99687.06;;;12.78;51.37
21730;BME280;11027;51.030;13.812;2023-05-10T04:03:11;99682.44;;;12.79;51.25
21730;BME280;11027;51.030;13.812;2023-05-10T04:05:37;99678.00;;;12.78;51.34
21730;BME280;11027;51.030;13.812;2023-05-10T04:08:02;99687.50;;;12.82;51.22
21730;BME280;11027;51.030;13.812;2023-05-10T04:10:28;99683.72;;;12.83;51.52
21730;BME280;11027;51.030;13.812;2023-05-10T04:12:53;99683.28;;;12.86;51.41
21730;BME280;11027;51.030;13.812;2023-05-10T04:15:18;99686.44;;;12.83;51.68
21730;BME280;11027;51.030;13.812;2023-05-10T04:17:44;99689.19;;;12.83;51.64
21730;BME280;11027;51.030;13.812;2023-05-10T04:20:10;99681.63;;;12.85;51.85
21730;BME280;11027;51.030;13.812;2023-05-10T04:22:35;99671.31;;;12.87;52.04
21730;BME280;11027;51.030;13.812;2023-05-10T04:25:00;99677.00;;;12.92;51.95
21730;BME280;11027;51.030;13.812;2023-05-10T04:27:26;99684.78;;;12.89;51.76
21730;BME280;11027;51.030;13.812;2023-05-10T04:29:51;99688.34;;;12.89;51.97
21730;BME280;11027;51.030;13.812;2023-05-10T04:32:16;99689.63;;;12.93;51.85
21730;BME280;11027;51.030;13.812;2023-05-10T04:34:43;99677.84;;;12.93;51.94
21730;BME280;11027;51.030;13.812;2023-05-10T04:37:08;99683.53;;;12.91;51.95
21730;BME280;11027;51.030;13.812;2023-05-10T04:39:33;99685.81;;;12.88;52.17
21730;BME280;11027;51.030;13.812;2023-05-10T04:41:59;99690.03;;;12.90;52.25
21730;BME280;11027;51.030;13.812;2023-05-10T04:44:24;99695.72;;;12.95;52.42
21730;BME280;11027;51.030;13.812;2023-05-10T04:46:49;99681.41;;;12.93;52.36
21730;BME280;11027;51.030;13.812;2023-05-10T04:49:14;99675.94;;;12.93;52.21
21730;BME280;11027;51.030;13.812;2023-05-10T04:51:40;99673.84;;;12.95;52.68
21730;BME280;11027;51.030;13.812;2023-05-10T04:54:05;99680.34;;;12.94;52.64
21730;BME280;11027;51.030;13.812;2023-05-10T04:56:30;99668.78;;;12.92;52.82
21730;BME280;11027;51.030;13.812;2023-05-10T04:58:55;99671.53;;;12.92;52.58
21730;BME280;11027;51.030;13.812;2023-05-10T05:01:21;99669.84;;;12.91;52.65
21730;BME280;11027;51.030;13.812;2023-05-10T05:03:48;99672.16;;;12.94;53.13
21730;BME280;11027;51.030;13.812;2023-05-10T05:06:13;99671.13;;;12.95;52.99
21730;BME280;11027;51.030;13.812;2023-05-10T05:08:38;99668.38;;;12.95;53.32
21730;BME280;11027;51.030;13.812;2023-05-10T05:11:03;99668.59;;;13.00;52.89
21730;BME280;11027;51.030;13.812;2023-05-10T05:13:29;99674.91;;;13.01;53.16
21730;BME280;11027;51.030;13.812;2023-05-10T05:15:54;99671.56;;;13.06;53.02
21730;BME280;11027;51.030;13.812;2023-05-10T05:18:19;99669.44;;;13.08;52.94
21730;BME280;11027;51.030;13.812;2023-05-10T05:20:44;99674.91;;;13.08;53.23
21730;BME280;11027;51.030;13.812;2023-05-10T05:23:10;99667.34;;;13.10;53.28
21730;BME280;11027;51.030;13.812;2023-05-10T05:25:35;99672.81;;;13.10;53.32
21730;BME280;11027;51.030;13.812;2023-05-10T05:28:01;99674.28;;;13.12;53.06
21730;BME280;11027;51.030;13.812;2023-05-10T05:30:26;99670.31;;;13.15;53.33
21730;BME280;11027;51.030;13.812;2023-05-10T05:32:51;99667.13;;;13.18;53.27
21730;BME280;11027;51.030;13.812;2023-05-10T05:35:17;99662.28;;;13.20;53.03
21730;BME280;11027;51.030;13.812;2023-05-10T05:37:42;99665.66;;;13.22;53.28
21730;BME280;11027;51.030;13.812;2023-05-10T05:40:08;99658.94;;;13.25;53.40
21730;BME280;11027;51.030;13.812;2023-05-10T05:42:33;99674.09;;;13.27;53.43
21730;BME280;11027;51.030;13.812;2023-05-10T05:44:58;99655.59;;;13.29;53.32
21730;BME280;11027;51.030;13.812;2023-05-10T05:47:24;99666.13;;;13.32;53.42
21730;BME280;11027;51.030;13.812;2023-05-10T05:49:49;99661.91;;;13.36;53.34
21730;BME280;11027;51.030;13.812;2023-05-10T05:52:14;99660.44;;;13.40;53.24
21730;BME280;11027;51.030;13.812;2023-05-10T05:54:40;99662.97;;;13.42;53.37
21730;BME280;11027;51.030;13.812;2023-05-10T05:57:05;99666.13;;;13.46;53.32
21730;BME280;11027;51.030;13.812;2023-05-10T05:59:30;99662.94;;;13.49;53.17
21730;BME280;11027;51.030;13.812;2023-05-10T06:01:56;99661.47;;;13.53;53.01
21730;BME280;11027;51.030;13.812;2023-05-10T06:04:21;99661.06;;;13.56;52.96
21730;BME280;11027;51.030;13.812;2023-05-10T06:06:46;99659.78;;;13.58;53.00
21730;BME280;11027;51.030;13.812;2023-05-10T06:09:11;99667.34;;;13.63;52.96
21730;BME280;11027;51.030;13.812;2023-05-10T06:11:37;99662.28;;;13.67;53.26
21730;BME280;11027;51.030;13.812;2023-05-10T06:14:03;99667.13;;;13.71;53.10
21730;BME280;11027;51.030;13.812;2023-05-10T06:16:29;99665.88;;;13.74;52.84
21730;BME280;11027;51.030;13.812;2023-05-10T06:18:55;99674.47;;;13.77;52.70
21730;BME280;11027;51.030;13.812;2023-05-10T06:21:20;99672.41;;;13.79;52.74
21730;BME280;11027;51.030;13.812;2023-05-10T06:23:45;99677.44;;;13.83;52.60
21730;BME280;11027;51.030;13.812;2023-05-10T06:26:11;99680.78;;;13.85;52.46
21730;BME280;11027;51.030;13.812;2023-05-10T06:28:36;99693.84;;;13.89;52.51
21730;BME280;11027;51.030;13.812;2023-05-10T06:31:03;99687.13;;;13.92;52.50
21730;BME280;11027;51.030;13.812;2023-05-10T06:33:29;99684.13;;;13.93;52.36
21730;BME280;11027;51.030;13.812;2023-05-10T06:35:54;99691.09;;;13.96;52.54
21730;BME280;11027;51.030;13.812;2023-05-10T06:38:19;99686.25;;;13.98;52.53
21730;BME280;11027;51.030;13.812;2023-05-10T06:40:44;99692.97;;;14.02;52.48
21730;BME280;11027;51.030;13.812;2023-05-10T06:43:10;99689.59;;;14.07;52.60
21730;BME280;11027;51.030;13.812;2023-05-10T06:45:35;99695.47;;;14.10;52.66
21730;BME280;11027;51.030;13.812;2023-05-10T06:48:01;99690.44;;;14.14;52.67
21730;BME280;11027;51.030;13.812;2023-05-10T06:50:26;99697.16;;;14.18;52.72
21730;BME280;11027;51.030;13.812;2023-05-10T06:52:51;99699.22;;;14.23;53.17
21730;BME280;11027;51.030;13.812;2023-05-10T06:55:17;99694.38;;;14.25;52.71
21730;BME280;11027;51.030;13.812;2023-05-10T06:57:42;99702.78;;;14.30;52.44
21730;BME280;11027;51.030;13.812;2023-05-10T07:00:07;99699.63;;;14.33;52.42
21730;BME280;11027;51.030;13.812;2023-05-10T07:02:34;99700.88;;;14.37;52.57
21730;BME280;11027;51.030;13.812;2023-05-10T07:05:00;99696.63;;;14.41;52.41
21730;BME280;11027;51.030;13.812;2023-05-10T07:07:25;99693.69;;;14.43;52.14
21730;BME280;11027;51.030;13.812;2023-05-10T07:09:50;99697.88;;;14.45;51.58
21730;BME280;11027;51.030;13.812;2023-05-10T07:12:16;99693.66;;;14.49;52.09
21730;BME280;11027;51.030;13.812;2023-05-10T07:14:42;99692.34;;;14.52;51.87
21730;BME280;11027;51.030;13.812;2023-05-10T07:17:07;99694.69;;;14.55;51.95
21730;BME280;11027;51.030;13.812;2023-05-10T07:19:32;99695.13;;;14.58;52.04
21730;BME280;11027;51.030;13.812;2023-05-10T07:21:58;99701.84;;;14.63;52.45
21730;BME280;11027;51.030;13.812;2023-05-10T07:24:23;99688.94;;;14.70;52.32
21730;BME280;11027;51.030;13.812;2023-05-10T07:26:49;99694.78;;;14.80;52.48
21730;BME280;11027;51.030;13.812;2023-05-10T07:29:14;99689.28;;;14.87;52.42
21730;BME280;11027;51.030;13.812;2023-05-10T07:31:40;99693.47;;;14.89;52.29
21730;BME280;11027;51.030;13.812;2023-05-10T07:34:07;99695.13;;;14.90;51.58
21730;BME280;11027;51.030;13.812;2023-05-10T07:36:32;99693.47;;;14.89;51.61
21730;BME280;11027;51.030;13.812;2023-05-10T07:38:57;99697.88;;;14.90;51.38
21730;BME280;11027;51.030;13.812;2023-05-10T07:41:23;99698.50;;;14.92;51.91
21730;BME280;11027;51.030;13.812;2023-05-10T07:43:48;99704.38;;;14.96;52.09
21730;BME280;11027;51.030;13.812;2023-05-10T07:46:13;99703.09;;;14.98;52.02
21730;BME280;11027;51.030;13.812;2023-05-10T07:48:39;99699.31;;;14.99;51.54
21730;BME280;11027;51.030;13.812;2023-05-10T07:51:04;99700.97;;;15.00;51.33
21730;BME280;11027;51.030;13.812;2023-05-10T07:53:31;99702.22;;;15.05;51.76
21730;BME280;11027;51.030;13.812;2023-05-10T07:55:57;99688.28;;;15.06;51.25
21730;BME280;11027;51.030;13.812;2023-05-10T07:58:23;99696.69;;;15.11;51.62
21730;BME280;11027;51.030;13.812;2023-05-10T08:00:49;99687.78;;;15.16;51.30
21730;BME280;11027;51.030;13.812;2023-05-10T08:03:14;99680.19;;;15.18;51.46
21730;BME280;11027;51.030;13.812;2023-05-10T08:05:39;99687.75;;;15.23;51.42
21730;BME280;11027;51.030;13.812;2023-05-10T08:08:05;99692.34;;;15.29;52.00
21730;BME280;11027;51.030;13.812;2023-05-10T08:10:31;99691.06;;;15.31;51.09
21730;BME280;11027;51.030;13.812;2023-05-10T08:12:56;99692.31;;;15.35;51.36
21730;BME280;11027;51.030;13.812;2023-05-10T08:15:23;99690.19;;;15.37;51.54
21730;BME280;11027;51.030;13.812;2023-05-10T08:17:48;99686.75;;;15.42;51.72
21730;BME280;11027;51.030;13.812;2023-05-10T08:20:13;99685.44;;;15.45;51.54
21730;BME280;11027;51.030;13.812;2023-05-10T08:22:41;99682.06;;;15.49;51.38
21730;BME280;11027;51.030;13.812;2023-05-10T08:25:07;99682.00;;;15.56;51.95
21730;BME280;11027;51.030;13.812;2023-05-10T08:27:32;99690.38;;;15.61;51.74
21730;BME280;11027;51.030;13.812;2023-05-10T08:29:58;99695.44;;;15.64;51.33
21730;BME280;11027;51.030;13.812;2023-05-10T08:32:23;99688.41;;;15.68;51.64
21730;BME280;11027;51.030;13.812;2023-05-10T08:34:48;99693.91;;;15.68;51.52
21730;BME280;11027;51.030;13.812;2023-05-10T08:37:13;99691.97;;;15.75;51.79
21730;BME280;11027;51.030;13.812;2023-05-10T08:39:39;99691.53;;;15.78;51.49
21730;BME280;11027;51.030;13.812;2023-05-10T08:42:05;99704.19;;;15.79;51.42
21730;BME280;11027;51.030;13.812;2023-05-10T08:44:35;99705.44;;;15.84;51.05
21730;BME280;11027;51.030;13.812;2023-05-10T08:47:04;99697.81;;;15.86;50.85
21730;BME280;11027;51.030;13.812;2023-05-10T08:49:31;99708.53;;;15.87;51.29
21730;BME280;11027;51.030;13.812;2023-05-10T08:51:57;99710.63;;;15.92;51.33
21730;BME280;11027;51.030;13.812;2023-05-10T08:54:24;99717.97;;;15.98;nan
21730;BME280;11027;51.030;13.812;2023-05-10T08:56:50;99719.78;;;16.04;51.14
21730;BME280;11027;51.030;13.812;2023-05-10T08:59:15;99717.66;;;16.06;50.74
21730;BME280;11027;51.030;13.812;2023-05-10T09:01:42;99717.19;;;16.09;51.28
21730;BME280;11027;51.030;13.812;2023-05-10T09:04:09;99721.16;;;16.13;51.28
21730;BME280;11027;51.030;13.812;2023-05-10T09:06:34;99733.38;;;16.17;50.88
21730;BME280;11027;51.030;13.812;2023-05-10T09:09:01;99723.59;;;16.22;50.92
21730;BME280;11027;51.030;13.812;2023-05-10T09:11:27;99735.81;;;16.26;50.87
21730;BME280;11027;51.030;13.812;2023-05-10T09:13:54;99726.03;;;16.30;50.96
21730;BME280;11027;51.030;13.812;2023-05-10T09:16:20;99734.47;;;16.35;51.44
21730;BME280;11027;51.030;13.812;2023-05-10T09:18:45;99734.59;;;16.40;51.01
21730;BME280;11027;51.030;13.812;2023-05-10T09:21:11;99729.75;;;16.42;49.96
21730;BME280;11027;51.030;13.812;2023-05-10T09:23:36;99728.44;;;16.45;50.20
21730;BME280;11027;51.030;13.812;2023-05-10T09:26:05;99725.81;;;16.50;50.59
21730;BME280;11027;51.030;13.812;2023-05-10T09:28:34;99740.56;;;16.55;50.24
21730;BME280;11027;51.030;13.812;2023-05-10T09:31:14;99746.84;;;16.63;50.42
21730;BME280;11027;51.030;13.812;2023-05-10T09:33:47;99733.69;;;16.65;50.20
21730;BME280;11027;51.030;13.812;2023-05-10T09:36:13;99740.41;;;16.69;50.35
21730;BME280;11027;51.030;13.812;2023-05-10T09:38:46;99739.47;;;16.75;50.36
21730;BME280;11027;51.030;13.812;2023-05-10T09:41:19;99751.25;;;16.82;50.47
21730;BME280;11027;51.030;13.812;2023-05-10T09:43:45;99747.56;;;16.88;50.09
21730;BME280;11027;51.030;13.812;2023-05-10T09:46:11;99742.22;;;16.93;49.46
21730;BME280;11027;51.030;13.812;2023-05-10T09:48:45;99743.44;;;16.97;49.78
21730;BME280;11027;51.030;13.812;2023-05-10T09:51:10;99734.84;;;17.06;49.77
21730;BME280;11027;51.030;13.812;2023-05-10T09:53:43;99736.22;;;17.15;50.16
21730;BME280;11027;51.030;13.812;2023-05-10T09:56:08;99730.22;;;17.18;49.54
21730;BME280;11027;51.030;13.812;2023-05-10T09:58:36;99737.91;;;17.28;49.25
21730;BME280;11027;51.030;13.812;2023-05-10T10:01:03;99743.31;;;17.34;48.78
21730;BME280;11027;51.030;13.812;2023-05-10T10:03:28;99741.31;;;17.42;49.06
21730;BME280;11027;51.030;13.812;2023-05-10T10:05:54;99734.84;;;17.48;49.07
21730;BME280;11027;51.030;13.812;2023-05-10T10:08:21;99743.22;;;17.53;48.05
21730;BME280;11027;51.030;13.812;2023-05-10T10:10:46;99729.72;;;17.63;48.47
21730;BME280;11027;51.030;13.812;2023-05-10T10:13:12;99733.81;;;17.72;48.34
21730;BME280;11027;51.030;13.812;2023-05-10T10:15:38;99735.78;;;17.84;48.64
21730;BME280;11027;51.030;13.812;2023-05-10T10:18:05;99731.69;;;17.98;48.53
21730;BME280;11027;51.030;13.812;2023-05-10T10:20:30;99738.28;;;18.09;48.16
21730;BME280;11027;51.030;13.812;2023-05-10T10:22:56;99738.75;;;18.17;47.74
21730;BME280;11027;51.030;13.812;2023-05-10T10:25:21;99722.69;;;18.26;47.51
21730;BME280;11027;51.030;13.812;2023-05-10T10:27:59;99731.41;;;18.35;47.95
21730;BME280;11027;51.030;13.812;2023-05-10T10:30:37;99726.13;;;18.45;47.50
21730;BME280;11027;51.030;13.812;2023-05-10T10:33:13;99728.03;;;18.56;47.67
21730;BME280;11027;51.030;13.812;2023-05-10T10:35:43;99725.47;;;18.67;47.33
21730;BME280;11027;51.030;13.812;2023-05-10T10:38:12;99719.06;;;18.78;47.89
21730;BME280;11027;51.030;13.812;2023-05-10T10:40:37;99723.16;;;18.87;47.21
21730;BME280;11027;51.030;13.812;2023-05-10T10:43:26;99726.97;;;18.86;46.22
21730;BME280;11027;51.030;13.812;2023-05-10T10:48:39;99731.81;;;18.79;46.02
21730;BME280;11027;51.030;13.812;2023-05-10T10:51:05;99733.47;;;18.80;45.68
21730;BME280;11027;51.030;13.812;2023-05-10T10:53:30;99731.91;;;18.84;45.71
21730;BME280;11027;51.030;13.812;2023-05-10T10:56:08;99736.94;;;18.87;45.85
21730;BME280;11027;51.030;13.812;2023-05-10T10:58:34;99732.03;;;18.89;45.13
21730;BME280;11027;51.030;13.812;2023-05-10T11:01:10;99725.41;;;18.90;45.28
21730;BME280;11027;51.030;13.812;2023-05-10T11:03:36;99725.59;;;19.01;45.22
21730;BME280;11027;51.030;13.812;2023-05-10T11:06:01;99722.19;;;19.10;45.41
21730;BME280;11027;51.030;13.812;2023-05-10T11:08:32;99725.41;;;19.19;45.36
21730;BME280;11027;51.030;13.812;2023-05-10T11:16:20;99719.72;;;19.43;45.65
21730;BME280;11027;51.030;13.812;2023-05-10T11:21:23;99729.81;;;19.66;44.90
21730;BME280;11027;51.030;13.812;2023-05-10T11:23:50;99718.13;;;19.75;44.52
21730;BME280;11027;51.030;13.812;2023-05-10T11:26:16;99726.63;;;19.91;44.14
21730;BME280;11027;51.030;13.812;2023-05-10T11:31:08;99729.63;;;20.06;43.45
21730;BME280;11027;51.030;13.812;2023-05-10T11:33:46;99730.13;;;20.20;43.49
21730;BME280;11027;51.030;13.812;2023-05-10T11:36:14;99721.69;;;20.32;42.80
21730;BME280;11027;51.030;13.812;2023-05-10T11:38:40;99723.50;;;20.43;43.03
21730;BME280;11027;51.030;13.812;2023-05-10T11:41:08;99728.16;;;20.60;42.68
21730;BME280;11027;51.030;13.812;2023-05-10T11:43:33;99721.22;;;20.79;42.98
21730;BME280;11027;51.030;13.812;2023-05-10T11:45:59;99735.75;;;20.91;42.48
21730;BME280;11027;51.030;13.812;2023-05-10T11:48:24;99728.06;;;20.98;42.39
21730;BME280;11027;51.030;13.812;2023-05-10T11:50:50;99729.75;;;21.00;42.13
21730;BME280;11027;51.030;13.812;2023-05-10T11:53:15;99738.88;;;21.00;41.86
21730;BME280;11027;51.030;13.812;2023-05-10T11:55:40;99730.31;;;21.02;41.53
21730;BME280;11027;51.030;13.812;2023-05-10T11:58:05;99736.50;;;21.09;41.43
21730;BME280;11027;51.030;13.812;2023-05-10T12:00:31;99731.06;;;21.19;41.37
21730;BME280;11027;51.030;13.812;2023-05-10T12:02:57;99722.97;;;21.40;41.28
21730;BME280;11027;51.030;13.812;2023-05-10T12:05:23;99730.91;;;21.58;40.85
21730;BME280;11027;51.030;13.812;2023-05-10T12:07:48;99722.56;;;21.90;40.99
21730;BME280;11027;51.030;13.812;2023-05-10T12:10:13;99724.13;;;22.18;41.33
21730;BME280;11027;51.030;13.812;2023-05-10T12:12:46;99724.19;;;22.24;40.15
21730;BME280;11027;51.030;13.812;2023-05-10T12:15:21;99738.34;;;22.27;39.48
21730;BME280;11027;51.030;13.812;2023-05-10T12:17:46;99733.13;;;22.31;39.11
21730;BME280;11027;51.030;13.812;2023-05-10T12:20:19;99734.59;;;22.49;39.31
21730;BME280;11027;51.030;13.812;2023-05-10T12:22:55;99730.78;;;22.65;39.24
21730;BME280;11027;51.030;13.812;2023-05-10T12:25:22;99721.09;;;22.78;38.84
21730;BME280;11027;51.030;13.812;2023-05-10T12:27:51;99730.56;;;22.82;38.35
21730;BME280;11027;51.030;13.812;2023-05-10T12:30:24;99737.28;;;22.96;38.34
21730;BME280;11027;51.030;13.812;2023-05-10T12:33:01;99739.03;;;23.18;38.56
21730;BME280;11027;51.030;13.812;2023-05-10T12:35:30;99726.00;;;23.44;38.46
21730;BME280;11027;51.030;13.812;2023-05-10T12:37:55;99732.44;;;23.65;37.88
21730;BME280;11027;51.030;13.812;2023-05-10T12:40:20;99731.31;;;23.71;37.60
21730;BME280;11027;51.030;13.812;2023-05-10T12:42:46;99729.94;;;23.84;37.36
21730;BME280;11027;51.030;13.812;2023-05-10T12:45:12;99735.78;;;23.88;37.04
21730;BME280;11027;51.030;13.812;2023-05-10T12:47:37;99729.66;;;23.91;36.76
21730;BME280;11027;51.030;13.812;2023-05-10T12:50:03;99731.88;;;23.89;36.18
21730;BME280;11027;51.030;13.812;2023-05-10T12:52:30;99743.00;;;23.79;36.16
21730;BME280;11027;51.030;13.812;2023-05-10T12:54:57;99741.88;;;23.95;36.23
21730;BME280;11027;51.030;13.812;2023-05-10T12:57:22;99742.97;;;24.20;35.78
21730;BME280;11027;51.030;13.812;2023-05-10T12:59:48;99728.69;;;24.42;35.98
21730;BME280;11027;51.030;13.812;2023-05-10T13:02:13;99744.28;;;24.58;35.48
21730;BME280;11027;51.030;13.812;2023-05-10T13:04:40;99737.00;;;24.67;35.10
21730;BME280;11027;51.030;13.812;2023-05-10T13:07:06;99735.03;;;24.73;34.87
21730;BME280;11027;51.030;13.812;2023-05-10T13:09:31;99731.88;;;24.95;34.71